ARG1519 SARI-SARC
Flight info
| Callsign | ARG1519 |
|---|---|
| Flight time | 0h 49m |
| Altitude | 24000 |
| Route | DCT IGU B687 POS/N0460F380 DCT CRS DCT |
| Aircraft | E190/M-SDE3GILORVW/S |
Departure
| Time | 2026-04-18 04:02 |
|---|---|
| Airport | Cataratas Del Iguazú International Airport (SARI) |
Arrival
| Time | 2026-04-18 04:51 |
|---|---|
| Airport | Corrientes Airport (SARC) |
| Time | Latitude | Longitude | Altitude | Speed | Heading |
|---|---|---|---|---|---|
| 2026-04-18 03:48 | -25.73185 | -54.47702 | 905 ft | 0 kts | 24° |
| 2026-04-18 03:57 | -25.73199 | -54.47710 | 905 ft | 2 kts | 24° |
| 2026-04-18 03:58 | -25.73231 | -54.47726 | 905 ft | 4 kts | 24° |
| 2026-04-18 03:58 | -25.73244 | -54.47727 | 912 ft | 0 kts | 295° |
| 2026-04-18 04:00 | -25.73243 | -54.47729 | 907 ft | 2 kts | 295° |
| 2026-04-18 04:00 | -25.73223 | -54.47789 | 908 ft | 15 kts | 281° |
| 2026-04-18 04:00 | -25.73227 | -54.47949 | 909 ft | 25 kts | 265° |
| 2026-04-18 04:00 | -25.73242 | -54.48161 | 906 ft | 30 kts | 265° |
| 2026-04-18 04:01 | -25.73262 | -54.48394 | 906 ft | 16 kts | 251° |
| 2026-04-18 04:01 | -25.73301 | -54.48384 | 906 ft | 3 kts | 115° |
| 2026-04-18 04:01 | -25.73334 | -54.48295 | 906 ft | 38 kts | 112° |
| 2026-04-18 04:01 | -25.73550 | -54.47772 | 906 ft | 110 kts | 114° |
| 2026-04-18 04:02 | -25.73967 | -54.46787 | 954 ft | 166 kts | 116° |
| 2026-04-18 04:02 | -25.74473 | -54.45583 | 1599 ft | 187 kts | 116° |
| 2026-04-18 04:02 | -25.75041 | -54.44165 | 2331 ft | 214 kts | 115° |
| 2026-04-18 04:02 | -25.75705 | -54.42611 | 3092 ft | 226 kts | 119° |
| 2026-04-18 04:03 | -25.76770 | -54.41332 | 4019 ft | 231 kts | 152° |
| 2026-04-18 04:03 | -25.78304 | -54.40752 | 4934 ft | 236 kts | 166° |
| 2026-04-18 04:03 | -25.79900 | -54.40335 | 5823 ft | 241 kts | 169° |
| 2026-04-18 04:03 | -25.81567 | -54.39980 | 6719 ft | 245 kts | 174° |
| 2026-04-18 04:04 | -25.83274 | -54.39762 | 7605 ft | 248 kts | 176° |
| 2026-04-18 04:04 | -25.85006 | -54.39564 | 8471 ft | 251 kts | 178° |
| 2026-04-18 04:04 | -25.86744 | -54.39759 | 9044 ft | 259 kts | 205° |
| 2026-04-18 04:04 | -25.88187 | -54.40985 | 9472 ft | 271 kts | 236° |
| 2026-04-18 04:05 | -25.88829 | -54.42949 | 10158 ft | 274 kts | 265° |
| 2026-04-18 04:05 | -25.88890 | -54.45054 | 10892 ft | 278 kts | 266° |
| 2026-04-18 04:05 | -25.89044 | -54.47212 | 11630 ft | 282 kts | 263° |
| 2026-04-18 04:05 | -25.89328 | -54.49380 | 12382 ft | 285 kts | 259° |
| 2026-04-18 04:06 | -25.89726 | -54.51553 | 13137 ft | 289 kts | 256° |
| 2026-04-18 04:06 | -25.90215 | -54.53730 | 13884 ft | 292 kts | 255° |
| 2026-04-18 04:06 | -25.90761 | -54.55941 | 14343 ft | 306 kts | 254° |
| 2026-04-18 04:06 | -25.91361 | -54.58287 | 14637 ft | 324 kts | 253° |
| 2026-04-18 04:07 | -25.91787 | -54.59893 | 14926 ft | 331 kts | 252° |
| 2026-04-18 04:07 | -25.92850 | -54.63092 | 15963 ft | 331 kts | 249° |
| 2026-04-18 04:07 | -25.93685 | -54.65508 | 16518 ft | 337 kts | 249° |
| 2026-04-18 04:07 | -25.94543 | -54.67954 | 17034 ft | 344 kts | 249° |
| 2026-04-18 04:08 | -25.95130 | -54.69628 | 17220 ft | 352 kts | 249° |
| 2026-04-18 04:08 | -25.96021 | -54.72169 | 17815 ft | 354 kts | 249° |
| 2026-04-18 04:08 | -25.96920 | -54.74733 | 18365 ft | 356 kts | 249° |
| 2026-04-18 04:08 | -25.97822 | -54.77312 | 18886 ft | 358 kts | 249° |
| 2026-04-18 04:09 | -25.99020 | -54.80737 | 19580 ft | 360 kts | 249° |
| 2026-04-18 04:09 | -25.99625 | -54.82468 | 19933 ft | 361 kts | 249° |
| 2026-04-18 04:09 | -26.00535 | -54.85076 | 20438 ft | 363 kts | 249° |
| 2026-04-18 04:09 | -26.01452 | -54.87705 | 20969 ft | 365 kts | 249° |
| 2026-04-18 04:10 | -26.02373 | -54.90348 | 21447 ft | 367 kts | 249° |
| 2026-04-18 04:10 | -26.03302 | -54.93014 | 21946 ft | 369 kts | 249° |
| 2026-04-18 04:10 | -26.04230 | -54.95682 | 22401 ft | 371 kts | 249° |
| 2026-04-18 04:10 | -26.05163 | -54.98364 | 22852 ft | 373 kts | 249° |
| 2026-04-18 04:11 | -26.06101 | -55.01064 | 23291 ft | 375 kts | 249° |
| 2026-04-18 04:11 | -26.07047 | -55.03788 | 23663 ft | 377 kts | 249° |
| 2026-04-18 04:11 | -26.07975 | -55.06463 | 23841 ft | 372 kts | 249° |
| 2026-04-18 04:11 | -26.08922 | -55.09190 | 23910 ft | 375 kts | 249° |
| 2026-04-18 04:12 | -26.09853 | -55.11877 | 23950 ft | 378 kts | 249° |
| 2026-04-18 04:12 | -26.10797 | -55.14603 | 23965 ft | 377 kts | 249° |
| 2026-04-18 04:12 | -26.11738 | -55.17322 | 23973 ft | 378 kts | 249° |
| 2026-04-18 04:12 | -26.12683 | -55.20054 | 23961 ft | 377 kts | 249° |
| 2026-04-18 04:13 | -26.13624 | -55.22774 | 23966 ft | 377 kts | 249° |
| 2026-04-18 04:13 | -26.14563 | -55.25495 | 23971 ft | 377 kts | 249° |
| 2026-04-18 04:13 | -26.15507 | -55.28227 | 23976 ft | 378 kts | 249° |
| 2026-04-18 04:13 | -26.16460 | -55.30994 | 23982 ft | 389 kts | 249° |
| 2026-04-18 04:14 | -26.17438 | -55.33830 | 23983 ft | 393 kts | 249° |
| 2026-04-18 04:14 | -26.18411 | -55.36658 | 23971 ft | 390 kts | 249° |
| 2026-04-18 04:14 | -26.19382 | -55.39479 | 23964 ft | 390 kts | 249° |
| 2026-04-18 04:14 | -26.20355 | -55.42307 | 23970 ft | 390 kts | 249° |
| 2026-04-18 04:15 | -26.21324 | -55.45126 | 23973 ft | 390 kts | 249° |
| 2026-04-18 04:15 | -26.22294 | -55.47949 | 23969 ft | 390 kts | 249° |
| 2026-04-18 04:15 | -26.23251 | -55.50742 | 23968 ft | 390 kts | 249° |
| 2026-04-18 04:15 | -26.24220 | -55.53566 | 23971 ft | 390 kts | 249° |
| 2026-04-18 04:16 | -26.25187 | -55.56389 | 23974 ft | 390 kts | 249° |
| 2026-04-18 04:16 | -26.26157 | -55.59219 | 23969 ft | 390 kts | 249° |
| 2026-04-18 04:16 | -26.27124 | -55.62047 | 23964 ft | 390 kts | 249° |
| 2026-04-18 04:16 | -26.28088 | -55.64871 | 23966 ft | 390 kts | 249° |
| 2026-04-18 04:17 | -26.29042 | -55.67663 | 23967 ft | 390 kts | 249° |
| 2026-04-18 04:17 | -26.30005 | -55.70481 | 23968 ft | 390 kts | 249° |
| 2026-04-18 04:17 | -26.30968 | -55.73305 | 23969 ft | 389 kts | 249° |
| 2026-04-18 04:17 | -26.31930 | -55.76127 | 23960 ft | 390 kts | 249° |
| 2026-04-18 04:18 | -26.32891 | -55.78948 | 23963 ft | 390 kts | 249° |
| 2026-04-18 04:18 | -26.33855 | -55.81780 | 23967 ft | 389 kts | 249° |
| 2026-04-18 04:18 | -26.34815 | -55.84603 | 23965 ft | 390 kts | 249° |
| 2026-04-18 04:18 | -26.35777 | -55.87435 | 23963 ft | 389 kts | 249° |
| 2026-04-18 04:19 | -26.36736 | -55.90261 | 23964 ft | 389 kts | 249° |
| 2026-04-18 04:19 | -26.37696 | -55.93086 | 23966 ft | 389 kts | 249° |
| 2026-04-18 04:19 | -26.38654 | -55.95912 | 23966 ft | 390 kts | 249° |
| 2026-04-18 04:19 | -26.39611 | -55.98738 | 23961 ft | 389 kts | 249° |
| 2026-04-18 04:20 | -26.40556 | -56.01528 | 23958 ft | 389 kts | 249° |
| 2026-04-18 04:20 | -26.41515 | -56.04361 | 23962 ft | 389 kts | 249° |
| 2026-04-18 04:20 | -26.42470 | -56.07186 | 23965 ft | 389 kts | 249° |
| 2026-04-18 04:20 | -26.43428 | -56.10023 | 23962 ft | 389 kts | 249° |
| 2026-04-18 04:21 | -26.44382 | -56.12850 | 23960 ft | 389 kts | 249° |
| 2026-04-18 04:21 | -26.45339 | -56.15685 | 23967 ft | 389 kts | 249° |
| 2026-04-18 04:21 | -26.46292 | -56.18514 | 23964 ft | 390 kts | 249° |
| 2026-04-18 04:21 | -26.47246 | -56.21347 | 23936 ft | 389 kts | 249° |
| 2026-04-18 04:22 | -26.48198 | -56.24173 | 23916 ft | 389 kts | 249° |
| 2026-04-18 04:22 | -26.49138 | -56.26966 | 23904 ft | 389 kts | 249° |
| 2026-04-18 04:22 | -26.50092 | -56.29807 | 23894 ft | 389 kts | 249° |
| 2026-04-18 04:22 | -26.51042 | -56.32636 | 23902 ft | 389 kts | 249° |
| 2026-04-18 04:23 | -26.51992 | -56.35469 | 23904 ft | 389 kts | 249° |
| 2026-04-18 04:23 | -26.52943 | -56.38303 | 23900 ft | 389 kts | 249° |
| 2026-04-18 04:23 | -26.53893 | -56.41139 | 23900 ft | 389 kts | 249° |
| 2026-04-18 04:23 | -26.54842 | -56.43973 | 23899 ft | 389 kts | 249° |
| 2026-04-18 04:24 | -26.55782 | -56.46782 | 23901 ft | 389 kts | 249° |
| 2026-04-18 04:24 | -26.56729 | -56.49616 | 23906 ft | 389 kts | 249° |
| 2026-04-18 04:24 | -26.57676 | -56.52450 | 23901 ft | 390 kts | 249° |
| 2026-04-18 04:24 | -26.58621 | -56.55282 | 23899 ft | 389 kts | 249° |
| 2026-04-18 04:25 | -26.59569 | -56.58124 | 23901 ft | 389 kts | 249° |
| 2026-04-18 04:25 | -26.60517 | -56.60969 | 23905 ft | 389 kts | 249° |
| 2026-04-18 04:25 | -26.61462 | -56.63806 | 23899 ft | 389 kts | 249° |
| 2026-04-18 04:25 | -26.62395 | -56.66611 | 23897 ft | 389 kts | 249° |
| 2026-04-18 04:26 | -26.63339 | -56.69450 | 23901 ft | 390 kts | 249° |
| 2026-04-18 04:26 | -26.64286 | -56.72298 | 23900 ft | 390 kts | 249° |
| 2026-04-18 04:26 | -26.65233 | -56.75150 | 23899 ft | 390 kts | 249° |
| 2026-04-18 04:26 | -26.66175 | -56.77992 | 23906 ft | 390 kts | 249° |
| 2026-04-18 04:27 | -26.67120 | -56.80842 | 23906 ft | 390 kts | 249° |
| 2026-04-18 04:27 | -26.68065 | -56.83692 | 23904 ft | 390 kts | 249° |
| 2026-04-18 04:27 | -26.68995 | -56.86505 | 23909 ft | 390 kts | 249° |
| 2026-04-18 04:27 | -26.69937 | -56.89352 | 23904 ft | 390 kts | 249° |
| 2026-04-18 04:28 | -26.70878 | -56.92201 | 23905 ft | 391 kts | 249° |
| 2026-04-18 04:28 | -26.71821 | -56.95054 | 23905 ft | 391 kts | 249° |
| 2026-04-18 04:28 | -26.72764 | -56.97910 | 23908 ft | 391 kts | 249° |
| 2026-04-18 04:28 | -26.73706 | -57.00769 | 23902 ft | 391 kts | 249° |
| 2026-04-18 04:29 | -26.74646 | -57.03622 | 23900 ft | 391 kts | 249° |
| 2026-04-18 04:29 | -26.75574 | -57.06439 | 23905 ft | 391 kts | 249° |
| 2026-04-18 04:29 | -26.76514 | -57.09297 | 23902 ft | 391 kts | 249° |
| 2026-04-18 04:29 | -26.77453 | -57.12156 | 23902 ft | 391 kts | 249° |
| 2026-04-18 04:30 | -26.78392 | -57.15016 | 23906 ft | 391 kts | 249° |
| 2026-04-18 04:30 | -26.79330 | -57.17873 | 23903 ft | 385 kts | 249° |
| 2026-04-18 04:30 | -26.80232 | -57.20623 | 23556 ft | 370 kts | 249° |
| 2026-04-18 04:30 | -26.81110 | -57.23300 | 23017 ft | 360 kts | 249° |
| 2026-04-18 04:31 | -26.81964 | -57.25906 | 22473 ft | 352 kts | 249° |
| 2026-04-18 04:31 | -26.82797 | -57.28451 | 21946 ft | 344 kts | 250° |
| 2026-04-18 04:31 | -26.83613 | -57.30946 | 21421 ft | 338 kts | 250° |
| 2026-04-18 04:31 | -26.84407 | -57.33378 | 20940 ft | 334 kts | 250° |
| 2026-04-18 04:32 | -26.85209 | -57.35834 | 20477 ft | 336 kts | 250° |
| 2026-04-18 04:32 | -26.86014 | -57.38302 | 20029 ft | 337 kts | 250° |
| 2026-04-18 04:32 | -26.86817 | -57.40760 | 19586 ft | 336 kts | 251° |
| 2026-04-18 04:32 | -26.87616 | -57.43213 | 19149 ft | 334 kts | 251° |
| 2026-04-18 04:33 | -26.88411 | -57.45656 | 18717 ft | 332 kts | 251° |
| 2026-04-18 04:33 | -26.89191 | -57.48051 | 18303 ft | 331 kts | 251° |
| 2026-04-18 04:33 | -26.89977 | -57.50470 | 17829 ft | 330 kts | 251° |
| 2026-04-18 04:33 | -26.90762 | -57.52888 | 17342 ft | 328 kts | 251° |
| 2026-04-18 04:34 | -26.91541 | -57.55284 | 16877 ft | 326 kts | 251° |
| 2026-04-18 04:34 | -26.92309 | -57.57649 | 16525 ft | 323 kts | 251° |
| 2026-04-18 04:34 | -26.93080 | -57.60022 | 16183 ft | 326 kts | 251° |
| 2026-04-18 04:34 | -26.93865 | -57.62448 | 15869 ft | 334 kts | 251° |
| 2026-04-18 04:35 | -26.94662 | -57.64906 | 15535 ft | 335 kts | 251° |
| 2026-04-18 04:35 | -26.95446 | -57.67325 | 15217 ft | 333 kts | 251° |
| 2026-04-18 04:35 | -26.96235 | -57.69763 | 14884 ft | 332 kts | 251° |
| 2026-04-18 04:35 | -26.97020 | -57.72195 | 14562 ft | 330 kts | 251° |
| 2026-04-18 04:36 | -26.97801 | -57.74609 | 14237 ft | 329 kts | 251° |
| 2026-04-18 04:36 | -26.98582 | -57.77029 | 13922 ft | 328 kts | 251° |
| 2026-04-18 04:36 | -26.99359 | -57.79435 | 13610 ft | 327 kts | 251° |
| 2026-04-18 04:36 | -27.00129 | -57.81827 | 13275 ft | 326 kts | 251° |
| 2026-04-18 04:37 | -27.00890 | -57.84185 | 12954 ft | 325 kts | 251° |
| 2026-04-18 04:37 | -27.01657 | -57.86569 | 12647 ft | 324 kts | 250° |
| 2026-04-18 04:37 | -27.02422 | -57.88941 | 12350 ft | 323 kts | 250° |
| 2026-04-18 04:37 | -27.03184 | -57.91314 | 12050 ft | 322 kts | 250° |
| 2026-04-18 04:38 | -27.03945 | -57.93679 | 11764 ft | 321 kts | 250° |
| 2026-04-18 04:38 | -27.04701 | -57.96034 | 11476 ft | 320 kts | 250° |
| 2026-04-18 04:38 | -27.05457 | -57.98389 | 11190 ft | 320 kts | 250° |
| 2026-04-18 04:38 | -27.06199 | -58.00702 | 10912 ft | 319 kts | 250° |
| 2026-04-18 04:39 | -27.06950 | -58.03047 | 10624 ft | 318 kts | 250° |
| 2026-04-18 04:39 | -27.07700 | -58.05386 | 10347 ft | 317 kts | 250° |
| 2026-04-18 04:39 | -27.08444 | -58.07710 | 10069 ft | 316 kts | 250° |
| 2026-04-18 04:39 | -27.09188 | -58.10035 | 9805 ft | 316 kts | 250° |
| 2026-04-18 04:40 | -27.09916 | -58.12310 | 9492 ft | 310 kts | 250° |
| 2026-04-18 04:40 | -27.10633 | -58.14554 | 9171 ft | 300 kts | 250° |
| 2026-04-18 04:40 | -27.11328 | -58.16730 | 8852 ft | 291 kts | 250° |
| 2026-04-18 04:40 | -27.12005 | -58.18851 | 8545 ft | 286 kts | 250° |
| 2026-04-18 04:41 | -27.12670 | -58.20937 | 8229 ft | 281 kts | 250° |
| 2026-04-18 04:41 | -27.13323 | -58.22983 | 7928 ft | 276 kts | 250° |
| 2026-04-18 04:41 | -27.13968 | -58.25010 | 7629 ft | 275 kts | 250° |
| 2026-04-18 04:41 | -27.14606 | -58.27010 | 7346 ft | 276 kts | 250° |
| 2026-04-18 04:42 | -27.15249 | -58.29044 | 7070 ft | 275 kts | 251° |
| 2026-04-18 04:42 | -27.15887 | -58.31082 | 6794 ft | 276 kts | 249° |
| 2026-04-18 04:42 | -27.16549 | -58.33103 | 6511 ft | 276 kts | 250° |
| 2026-04-18 04:42 | -27.17194 | -58.35131 | 6230 ft | 275 kts | 250° |
| 2026-04-18 04:43 | -27.17827 | -58.37132 | 5926 ft | 270 kts | 250° |
| 2026-04-18 04:43 | -27.18440 | -58.39066 | 5553 ft | 268 kts | 250° |
| 2026-04-18 04:43 | -27.19064 | -58.41033 | 5188 ft | 266 kts | 250° |
| 2026-04-18 04:43 | -27.19682 | -58.42989 | 4823 ft | 265 kts | 250° |
| 2026-04-18 04:44 | -27.20297 | -58.44931 | 4452 ft | 263 kts | 250° |
| 2026-04-18 04:44 | -27.20907 | -58.46866 | 4083 ft | 262 kts | 250° |
| 2026-04-18 04:44 | -27.21511 | -58.48773 | 3722 ft | 261 kts | 250° |
| 2026-04-18 04:44 | -27.22118 | -58.50692 | 3351 ft | 260 kts | 250° |
| 2026-04-18 04:45 | -27.22724 | -58.52598 | 3093 ft | 255 kts | 249° |
| 2026-04-18 04:45 | -27.23336 | -58.54399 | 3013 ft | 240 kts | 248° |
| 2026-04-18 04:45 | -27.23945 | -58.56119 | 2979 ft | 234 kts | 248° |
| 2026-04-18 04:45 | -27.24550 | -58.57801 | 2979 ft | 232 kts | 247° |
| 2026-04-18 04:46 | -27.25159 | -58.59484 | 2992 ft | 233 kts | 247° |
| 2026-04-18 04:46 | -27.25775 | -58.61181 | 3006 ft | 234 kts | 247° |
| 2026-04-18 04:46 | -27.26391 | -58.62875 | 3001 ft | 233 kts | 247° |
| 2026-04-18 04:46 | -27.26997 | -58.64546 | 2977 ft | 234 kts | 247° |
| 2026-04-18 04:47 | -27.27602 | -58.66212 | 2865 ft | 224 kts | 247° |
| 2026-04-18 04:47 | -27.28169 | -58.67776 | 2505 ft | 212 kts | 247° |
| 2026-04-18 04:47 | -27.28716 | -58.69282 | 2244 ft | 202 kts | 247° |
| 2026-04-18 04:47 | -27.29253 | -58.70753 | 2109 ft | 205 kts | 246° |
| 2026-04-18 04:48 | -27.29833 | -58.72135 | 2034 ft | 192 kts | 241° |
| 2026-04-18 04:48 | -27.30649 | -58.73254 | 1983 ft | 184 kts | 217° |
| 2026-04-18 04:48 | -27.31699 | -58.73939 | 1990 ft | 166 kts | 203° |
| 2026-04-18 04:48 | -27.32797 | -58.74324 | 1825 ft | 163 kts | 191° |
| 2026-04-18 04:49 | -27.33889 | -58.74535 | 1854 ft | 156 kts | 188° |
| 2026-04-18 04:49 | -27.34958 | -58.74699 | 1877 ft | 155 kts | 187° |
| 2026-04-18 04:49 | -27.36011 | -58.74853 | 1867 ft | 148 kts | 187° |
| 2026-04-18 04:49 | -27.37023 | -58.75018 | 1621 ft | 144 kts | 188° |
| 2026-04-18 04:50 | -27.37998 | -58.75169 | 1379 ft | 139 kts | 188° |
| 2026-04-18 04:50 | -27.38953 | -58.75316 | 1169 ft | 139 kts | 188° |
| 2026-04-18 04:50 | -27.39920 | -58.75465 | 975 ft | 140 kts | 188° |
| 2026-04-18 04:50 | -27.40885 | -58.75619 | 794 ft | 141 kts | 188° |
| 2026-04-18 04:51 | -27.41841 | -58.75769 | 586 ft | 140 kts | 188° |
| 2026-04-18 04:51 | -27.42812 | -58.75915 | 357 ft | 140 kts | 187° |
| 2026-04-18 04:51 | -27.43770 | -58.76063 | 218 ft | 136 kts | 188° |
| 2026-04-18 04:51 | -27.44411 | -58.76160 | 212 ft | 49 kts | 188° |
| 2026-04-18 04:52 | -27.44733 | -58.76208 | 208 ft | 33 kts | 181° |
| 2026-04-18 04:52 | -27.44800 | -58.76069 | 214 ft | 22 kts | 98° |
| 2026-04-18 04:52 | -27.44817 | -58.75901 | 210 ft | 17 kts | 89° |
| 2026-04-18 04:52 | -27.44843 | -58.75864 | 211 ft | 0 kts | 181° |